sensor_id;sensor_type;location;lat;lon;timestamp;temperature;humidity
16666;DHT22;8446;50.99880500;6.25021400;2024-02-04T00:01:48;9.50;99.90
16666;DHT22;8446;50.99880500;6.25021400;2024-02-04T00:04:20;9.60;99.90
16666;DHT22;8446;50.99880500;6.25021400;2024-02-04T00:06:53;9.60;99.90
16666;DHT22;8446;50.99880500;6.25021400;2024-02-04T00:09:25;9.60;99.90
16666;DHT22;8446;50.99880500;6.25021400;2024-02-04T00:12:00;9.50;99.90
16666;DHT22;8446;50.99880500;6.25021400;2024-02-04T00:14:34;9.60;99.90
16666;DHT22;8446;50.99880500;6.25021400;2024-02-04T00:17:05;9.50;99.90
16666;DHT22;8446;50.99880500;6.25021400;2024-02-04T00:19:37;9.50;99.90
16666;DHT22;8446;50.99880500;6.25021400;2024-02-04T00:22:09;9.50;99.90
16666;DHT22;8446;50.99880500;6.25021400;2024-02-04T00:24:41;9.60;99.90
16666;DHT22;8446;50.99880500;6.25021400;2024-02-04T00:27:14;9.50;99.90
16666;DHT22;8446;50.99880500;6.25021400;2024-02-04T00:29:46;9.50;99.90
16666;DHT22;8446;50.99880500;6.25021400;2024-02-04T00:32:17;9.50;99.90
16666;DHT22;8446;50.99880500;6.25021400;2024-02-04T00:34:49;9.50;99.90
16666;DHT22;8446;50.99880500;6.25021400;2024-02-04T00:37:21;9.50;99.90
16666;DHT22;8446;50.99880500;6.25021400;2024-02-04T00:39:53;9.50;99.90
16666;DHT22;8446;50.99880500;6.25021400;2024-02-04T00:42:26;9.60;99.90
16666;DHT22;8446;50.99880500;6.25021400;2024-02-04T00:44:57;9.60;99.90
16666;DHT22;8446;50.99880500;6.25021400;2024-02-04T00:47:29;9.60;99.90
16666;DHT22;8446;50.99880500;6.25021400;2024-02-04T00:50:01;9.60;99.90
16666;DHT22;8446;50.99880500;6.25021400;2024-02-04T00:52:33;9.60;99.90
16666;DHT22;8446;50.99880500;6.25021400;2024-02-04T00:55:05;9.60;99.90
16666;DHT22;8446;50.99880500;6.25021400;2024-02-04T00:57:38;9.60;99.90
16666;DHT22;8446;50.99880500;6.25021400;2024-02-04T01:00:11;9.60;99.90
16666;DHT22;8446;50.99880500;6.25021400;2024-02-04T01:02:44;9.60;99.90
16666;DHT22;8446;50.99880500;6.25021400;2024-02-04T01:05:22;9.60;99.90
16666;DHT22;8446;50.99880500;6.25021400;2024-02-04T01:07:54;9.60;99.90
16666;DHT22;8446;50.99880500;6.25021400;2024-02-04T01:10:26;9.60;99.90
16666;DHT22;8446;50.99880500;6.25021400;2024-02-04T01:12:59;9.60;99.90
16666;DHT22;8446;50.99880500;6.25021400;2024-02-04T01:15:30;9.60;99.90
16666;DHT22;8446;50.99880500;6.25021400;2024-02-04T01:18:02;9.60;99.90
16666;DHT22;8446;50.99880500;6.25021400;2024-02-04T01:20:34;9.70;99.90
16666;DHT22;8446;50.99880500;6.25021400;2024-02-04T01:23:06;9.60;99.90
16666;DHT22;8446;50.99880500;6.25021400;2024-02-04T01:25:39;9.60;99.90
16666;DHT22;8446;50.99880500;6.25021400;2024-02-04T01:28:12;9.60;99.90
16666;DHT22;8446;50.99880500;6.25021400;2024-02-04T01:30:44;9.70;99.90
16666;DHT22;8446;50.99880500;6.25021400;2024-02-04T01:33:15;9.70;99.90
16666;DHT22;8446;50.99880500;6.25021400;2024-02-04T01:35:47;9.60;99.90
16666;DHT22;8446;50.99880500;6.25021400;2024-02-04T01:38:19;9.70;99.90
16666;DHT22;8446;50.99880500;6.25021400;2024-02-04T01:40:51;9.60;99.90
16666;DHT22;8446;50.99880500;6.25021400;2024-02-04T01:43:25;9.60;99.90
16666;DHT22;8446;50.99880500;6.25021400;2024-02-04T01:45:57;9.60;99.90
16666;DHT22;8446;50.99880500;6.25021400;2024-02-04T01:48:29;9.70;99.90
16666;DHT22;8446;50.99880500;6.25021400;2024-02-04T01:51:01;9.70;99.90
16666;DHT22;8446;50.99880500;6.25021400;2024-02-04T01:53:34;9.70;99.90
16666;DHT22;8446;50.99880500;6.25021400;2024-02-04T01:56:06;9.70;99.90
16666;DHT22;8446;50.99880500;6.25021400;2024-02-04T01:58:40;9.70;99.90
16666;DHT22;8446;50.99880500;6.25021400;2024-02-04T02:01:12;9.70;99.90
16666;DHT22;8446;50.99880500;6.25021400;2024-02-04T02:03:44;9.70;99.90
16666;DHT22;8446;50.99880500;6.25021400;2024-02-04T02:06:16;9.70;99.90
16666;DHT22;8446;50.99880500;6.25021400;2024-02-04T02:08:48;9.70;99.90
16666;DHT22;8446;50.99880500;6.25021400;2024-02-04T02:11:24;9.70;99.90
16666;DHT22;8446;50.99880500;6.25021400;2024-02-04T02:14:03;9.70;99.90
16666;DHT22;8446;50.99880500;6.25021400;2024-02-04T02:16:37;9.80;99.90
16666;DHT22;8446;50.99880500;6.25021400;2024-02-04T02:19:22;9.70;99.90
16666;DHT22;8446;50.99880500;6.25021400;2024-02-04T02:22:04;9.80;99.90
16666;DHT22;8446;50.99880500;6.25021400;2024-02-04T02:24:39;9.80;99.90
16666;DHT22;8446;50.99880500;6.25021400;2024-02-04T02:27:11;9.70;99.90
16666;DHT22;8446;50.99880500;6.25021400;2024-02-04T02:29:43;9.80;99.90
16666;DHT22;8446;50.99880500;6.25021400;2024-02-04T02:32:15;9.80;99.90
16666;DHT22;8446;50.99880500;6.25021400;2024-02-04T02:34:47;9.80;99.90
16666;DHT22;8446;50.99880500;6.25021400;2024-02-04T02:37:24;9.80;99.90
16666;DHT22;8446;50.99880500;6.25021400;2024-02-04T02:40:03;9.80;99.90
16666;DHT22;8446;50.99880500;6.25021400;2024-02-04T02:42:38;9.80;99.90
16666;DHT22;8446;50.99880500;6.25021400;2024-02-04T02:45:12;9.80;99.90
16666;DHT22;8446;50.99880500;6.25021400;2024-02-04T02:47:44;9.80;99.90
16666;DHT22;8446;50.99880500;6.25021400;2024-02-04T02:50:18;9.80;99.90
16666;DHT22;8446;50.99880500;6.25021400;2024-02-04T02:52:50;9.80;99.90
16666;DHT22;8446;50.99880500;6.25021400;2024-02-04T02:55:23;9.80;99.90
16666;DHT22;8446;50.99880500;6.25021400;2024-02-04T02:57:54;9.80;99.90
16666;DHT22;8446;50.99880500;6.25021400;2024-02-04T03:00:26;9.80;99.90
16666;DHT22;8446;50.99880500;6.25021400;2024-02-04T03:02:58;9.80;99.90
16666;DHT22;8446;50.99880500;6.25021400;2024-02-04T03:05:30;9.80;99.90
16666;DHT22;8446;50.99880500;6.25021400;2024-02-04T03:08:02;9.80;99.90
16666;DHT22;8446;50.99880500;6.25021400;2024-02-04T03:10:35;9.80;99.90
16666;DHT22;8446;50.99880500;6.25021400;2024-02-04T03:13:07;9.80;99.90
16666;DHT22;8446;50.99880500;6.25021400;2024-02-04T03:15:39;9.80;99.90
16666;DHT22;8446;50.99880500;6.25021400;2024-02-04T03:18:11;9.90;99.90
16666;DHT22;8446;50.99880500;6.25021400;2024-02-04T03:20:43;9.90;99.90
16666;DHT22;8446;50.99880500;6.25021400;2024-02-04T03:23:15;9.90;99.90
16666;DHT22;8446;50.99880500;6.25021400;2024-02-04T03:25:48;9.90;99.90
16666;DHT22;8446;50.99880500;6.25021400;2024-02-04T03:28:19;9.90;99.90
16666;DHT22;8446;50.99880500;6.25021400;2024-02-04T03:30:51;9.90;99.90
16666;DHT22;8446;50.99880500;6.25021400;2024-02-04T03:33:23;9.90;99.90
16666;DHT22;8446;50.99880500;6.25021400;2024-02-04T03:35:55;9.90;99.90
16666;DHT22;8446;50.99880500;6.25021400;2024-02-04T03:38:26;9.90;99.90
16666;DHT22;8446;50.99880500;6.25021400;2024-02-04T03:40:59;9.90;99.90
16666;DHT22;8446;50.99880500;6.25021400;2024-02-04T03:43:31;9.90;99.90
16666;DHT22;8446;50.99880500;6.25021400;2024-02-04T03:46:03;9.90;99.90
16666;DHT22;8446;50.99880500;6.25021400;2024-02-04T03:48:35;9.90;99.90
16666;DHT22;8446;50.99880500;6.25021400;2024-02-04T03:51:06;9.90;99.90
16666;DHT22;8446;50.99880500;6.25021400;2024-02-04T03:53:38;9.90;99.90
16666;DHT22;8446;50.99880500;6.25021400;2024-02-04T03:56:11;9.90;99.90
16666;DHT22;8446;50.99880500;6.25021400;2024-02-04T03:58:43;9.90;99.90
16666;DHT22;8446;50.99880500;6.25021400;2024-02-04T04:01:15;9.90;99.90
16666;DHT22;8446;50.99880500;6.25021400;2024-02-04T04:03:47;10.00;99.90
16666;DHT22;8446;50.99880500;6.25021400;2024-02-04T04:06:18;10.00;99.90
16666;DHT22;8446;50.99880500;6.25021400;2024-02-04T04:08:50;10.00;99.90
16666;DHT22;8446;50.99880500;6.25021400;2024-02-04T04:11:23;10.00;99.90
16666;DHT22;8446;50.99880500;6.25021400;2024-02-04T04:13:55;9.90;99.90
16666;DHT22;8446;50.99880500;6.25021400;2024-02-04T04:16:27;9.90;99.90
16666;DHT22;8446;50.99880500;6.25021400;2024-02-04T04:18:58;10.00;99.90
16666;DHT22;8446;50.99880500;6.25021400;2024-02-04T04:21:30;10.00;99.90
16666;DHT22;8446;50.99880500;6.25021400;2024-02-04T04:24:02;9.90;99.90
16666;DHT22;8446;50.99880500;6.25021400;2024-02-04T04:26:35;9.90;99.90
16666;DHT22;8446;50.99880500;6.25021400;2024-02-04T04:29:07;9.90;99.90
16666;DHT22;8446;50.99880500;6.25021400;2024-02-04T04:31:39;9.90;99.90
16666;DHT22;8446;50.99880500;6.25021400;2024-02-04T04:34:10;9.90;99.90
16666;DHT22;8446;50.99880500;6.25021400;2024-02-04T04:36:42;9.90;99.90
16666;DHT22;8446;50.99880500;6.25021400;2024-02-04T04:39:14;9.90;99.90
16666;DHT22;8446;50.99880500;6.25021400;2024-02-04T04:41:47;9.90;99.90
16666;DHT22;8446;50.99880500;6.25021400;2024-02-04T04:44:19;9.90;99.90
16666;DHT22;8446;50.99880500;6.25021400;2024-02-04T04:46:50;9.90;99.90
16666;DHT22;8446;50.99880500;6.25021400;2024-02-04T04:49:22;10.00;99.90
16666;DHT22;8446;50.99880500;6.25021400;2024-02-04T04:51:54;9.90;99.90
16666;DHT22;8446;50.99880500;6.25021400;2024-02-04T04:54:27;10.00;99.90
16666;DHT22;8446;50.99880500;6.25021400;2024-02-04T04:57:00;10.00;99.90
16666;DHT22;8446;50.99880500;6.25021400;2024-02-04T04:59:32;9.90;99.90
16666;DHT22;8446;50.99880500;6.25021400;2024-02-04T05:02:06;9.90;99.90
16666;DHT22;8446;50.99880500;6.25021400;2024-02-04T05:04:38;9.90;99.90
16666;DHT22;8446;50.99880500;6.25021400;2024-02-04T05:07:10;9.90;99.90
16666;DHT22;8446;50.99880500;6.25021400;2024-02-04T05:09:41;9.90;99.90
16666;DHT22;8446;50.99880500;6.25021400;2024-02-04T05:12:14;9.90;99.90
16666;DHT22;8446;50.99880500;6.25021400;2024-02-04T05:14:46;9.90;99.90
16666;DHT22;8446;50.99880500;6.25021400;2024-02-04T05:17:18;9.90;99.90
16666;DHT22;8446;50.99880500;6.25021400;2024-02-04T05:19:50;9.90;99.90
16666;DHT22;8446;50.99880500;6.25021400;2024-02-04T05:22:21;9.90;99.90
16666;DHT22;8446;50.99880500;6.25021400;2024-02-04T05:24:53;9.90;99.90
16666;DHT22;8446;50.99880500;6.25021400;2024-02-04T05:27:26;9.90;99.90
16666;DHT22;8446;50.99880500;6.25021400;2024-02-04T05:29:58;9.90;99.90
16666;DHT22;8446;50.99880500;6.25021400;2024-02-04T05:32:30;9.90;99.90
16666;DHT22;8446;50.99880500;6.25021400;2024-02-04T05:35:01;9.90;99.90
16666;DHT22;8446;50.99880500;6.25021400;2024-02-04T05:37:33;9.90;99.90
16666;DHT22;8446;50.99880500;6.25021400;2024-02-04T05:40:07;9.90;99.90
16666;DHT22;8446;50.99880500;6.25021400;2024-02-04T05:42:40;9.90;99.90
16666;DHT22;8446;50.99880500;6.25021400;2024-02-04T05:45:12;9.90;99.90
16666;DHT22;8446;50.99880500;6.25021400;2024-02-04T05:47:43;9.90;99.90
16666;DHT22;8446;50.99880500;6.25021400;2024-02-04T05:50:15;10.00;99.90
16666;DHT22;8446;50.99880500;6.25021400;2024-02-04T05:52:47;10.00;99.90
16666;DHT22;8446;50.99880500;6.25021400;2024-02-04T05:55:19;10.00;99.90
16666;DHT22;8446;50.99880500;6.25021400;2024-02-04T05:57:52;10.00;99.90
16666;DHT22;8446;50.99880500;6.25021400;2024-02-04T06:00:24;10.00;99.90
16666;DHT22;8446;50.99880500;6.25021400;2024-02-04T06:02:56;10.00;99.90
16666;DHT22;8446;50.99880500;6.25021400;2024-02-04T06:05:28;10.00;99.90
16666;DHT22;8446;50.99880500;6.25021400;2024-02-04T06:08:00;10.00;99.90
16666;DHT22;8446;50.99880500;6.25021400;2024-02-04T06:10:31;10.00;99.90
16666;DHT22;8446;50.99880500;6.25021400;2024-02-04T06:13:05;10.00;99.90
16666;DHT22;8446;50.99880500;6.25021400;2024-02-04T06:15:36;9.90;99.90
16666;DHT22;8446;50.99880500;6.25021400;2024-02-04T06:18:08;9.90;99.90
16666;DHT22;8446;50.99880500;6.25021400;2024-02-04T06:20:40;9.90;99.90
16666;DHT22;8446;50.99880500;6.25021400;2024-02-04T06:23:14;9.90;99.90
16666;DHT22;8446;50.99880500;6.25021400;2024-02-04T06:25:46;9.90;99.90
16666;DHT22;8446;50.99880500;6.25021400;2024-02-04T06:28:19;9.90;99.90
16666;DHT22;8446;50.99880500;6.25021400;2024-02-04T06:30:51;9.90;99.90
16666;DHT22;8446;50.99880500;6.25021400;2024-02-04T06:33:23;9.80;99.90
16666;DHT22;8446;50.99880500;6.25021400;2024-02-04T06:35:55;9.80;99.90
16666;DHT22;8446;50.99880500;6.25021400;2024-02-04T06:38:27;9.80;99.90
16666;DHT22;8446;50.99880500;6.25021400;2024-02-04T06:40:59;9.80;99.90
16666;DHT22;8446;50.99880500;6.25021400;2024-02-04T06:43:32;9.80;99.90
16666;DHT22;8446;50.99880500;6.25021400;2024-02-04T06:46:04;9.80;99.90
16666;DHT22;8446;50.99880500;6.25021400;2024-02-04T06:48:35;9.80;99.90
16666;DHT22;8446;50.99880500;6.25021400;2024-02-04T06:51:07;9.80;99.90
16666;DHT22;8446;50.99880500;6.25021400;2024-02-04T06:53:39;9.80;99.90
16666;DHT22;8446;50.99880500;6.25021400;2024-02-04T06:56:11;9.80;99.90
16666;DHT22;8446;50.99880500;6.25021400;2024-02-04T06:58:44;9.80;99.90
16666;DHT22;8446;50.99880500;6.25021400;2024-02-04T07:01:16;9.80;99.90
16666;DHT22;8446;50.99880500;6.25021400;2024-02-04T07:03:48;9.80;99.90
16666;DHT22;8446;50.99880500;6.25021400;2024-02-04T07:06:20;9.80;99.90
16666;DHT22;8446;50.99880500;6.25021400;2024-02-04T07:08:52;9.80;99.90
16666;DHT22;8446;50.99880500;6.25021400;2024-02-04T07:11:24;9.80;99.90
16666;DHT22;8446;50.99880500;6.25021400;2024-02-04T07:13:58;9.80;99.90
16666;DHT22;8446;50.99880500;6.25021400;2024-02-04T07:16:30;9.80;99.90
16666;DHT22;8446;50.99880500;6.25021400;2024-02-04T07:19:02;9.80;99.90
16666;DHT22;8446;50.99880500;6.25021400;2024-02-04T07:21:34;9.80;99.90
16666;DHT22;8446;50.99880500;6.25021400;2024-02-04T07:24:06;9.80;99.90
16666;DHT22;8446;50.99880500;6.25021400;2024-02-04T07:26:38;9.80;99.90
16666;DHT22;8446;50.99880500;6.25021400;2024-02-04T07:29:12;9.90;99.90
16666;DHT22;8446;50.99880500;6.25021400;2024-02-04T07:31:44;9.80;99.90
16666;DHT22;8446;50.99880500;6.25021400;2024-02-04T07:34:15;9.80;99.90
16666;DHT22;8446;50.99880500;6.25021400;2024-02-04T07:36:47;9.90;99.90
16666;DHT22;8446;50.99880500;6.25021400;2024-02-04T07:39:19;9.90;99.90
16666;DHT22;8446;50.99880500;6.25021400;2024-02-04T07:41:51;9.80;99.90
16666;DHT22;8446;50.99880500;6.25021400;2024-02-04T07:44:25;9.90;99.90
16666;DHT22;8446;50.99880500;6.25021400;2024-02-04T07:46:57;9.90;99.90
16666;DHT22;8446;50.99880500;6.25021400;2024-02-04T07:49:29;9.90;99.90
16666;DHT22;8446;50.99880500;6.25021400;2024-02-04T07:52:01;9.90;99.90
16666;DHT22;8446;50.99880500;6.25021400;2024-02-04T07:54:32;9.90;99.90
16666;DHT22;8446;50.99880500;6.25021400;2024-02-04T07:57:04;9.90;99.90
16666;DHT22;8446;50.99880500;6.25021400;2024-02-04T07:59:37;9.90;99.90
16666;DHT22;8446;50.99880500;6.25021400;2024-02-04T08:02:09;9.90;99.90
16666;DHT22;8446;50.99880500;6.25021400;2024-02-04T08:04:41;9.90;99.90
16666;DHT22;8446;50.99880500;6.25021400;2024-02-04T08:07:13;9.90;99.90
16666;DHT22;8446;50.99880500;6.25021400;2024-02-04T08:09:45;9.90;99.90
16666;DHT22;8446;50.99880500;6.25021400;2024-02-04T08:12:17;9.90;99.90
16666;DHT22;8446;50.99880500;6.25021400;2024-02-04T08:14:51;9.90;99.90
16666;DHT22;8446;50.99880500;6.25021400;2024-02-04T08:17:22;9.90;99.90
16666;DHT22;8446;50.99880500;6.25021400;2024-02-04T08:19:54;9.90;99.90
16666;DHT22;8446;50.99880500;6.25021400;2024-02-04T08:22:26;10.00;99.90
16666;DHT22;8446;50.99880500;6.25021400;2024-02-04T08:24:57;10.00;99.90
16666;DHT22;8446;50.99880500;6.25021400;2024-02-04T08:27:29;10.00;99.90
16666;DHT22;8446;50.99880500;6.25021400;2024-02-04T08:30:03;10.00;99.90
16666;DHT22;8446;50.99880500;6.25021400;2024-02-04T08:32:35;10.00;99.90
16666;DHT22;8446;50.99880500;6.25021400;2024-02-04T08:35:07;10.00;99.90
16666;DHT22;8446;50.99880500;6.25021400;2024-02-04T08:37:39;10.00;99.90
16666;DHT22;8446;50.99880500;6.25021400;2024-02-04T08:40:10;10.00;99.90
16666;DHT22;8446;50.99880500;6.25021400;2024-02-04T08:42:42;10.00;99.90
16666;DHT22;8446;50.99880500;6.25021400;2024-02-04T08:45:15;10.10;99.90
16666;DHT22;8446;50.99880500;6.25021400;2024-02-04T08:47:47;10.10;99.90
16666;DHT22;8446;50.99880500;6.25021400;2024-02-04T08:50:20;10.10;99.90
16666;DHT22;8446;50.99880500;6.25021400;2024-02-04T08:52:51;10.10;99.90
16666;DHT22;8446;50.99880500;6.25021400;2024-02-04T08:55:23;10.10;99.90
16666;DHT22;8446;50.99880500;6.25021400;2024-02-04T08:57:55;10.10;99.90
16666;DHT22;8446;50.99880500;6.25021400;2024-02-04T09:00:28;10.10;99.90
16666;DHT22;8446;50.99880500;6.25021400;2024-02-04T09:02:59;10.10;99.90
16666;DHT22;8446;50.99880500;6.25021400;2024-02-04T09:05:31;10.10;99.90
16666;DHT22;8446;50.99880500;6.25021400;2024-02-04T09:08:03;10.10;99.90
16666;DHT22;8446;50.99880500;6.25021400;2024-02-04T09:10:35;10.10;99.90
16666;DHT22;8446;50.99880500;6.25021400;2024-02-04T09:13:07;10.10;99.90
16666;DHT22;8446;50.99880500;6.25021400;2024-02-04T09:15:40;10.10;99.90
16666;DHT22;8446;50.99880500;6.25021400;2024-02-04T09:18:12;10.10;99.90
16666;DHT22;8446;50.99880500;6.25021400;2024-02-04T09:20:44;10.10;99.90
16666;DHT22;8446;50.99880500;6.25021400;2024-02-04T09:23:16;10.10;99.90
16666;DHT22;8446;50.99880500;6.25021400;2024-02-04T09:25:48;10.10;99.90
16666;DHT22;8446;50.99880500;6.25021400;2024-02-04T09:28:19;10.20;99.90
16666;DHT22;8446;50.99880500;6.25021400;2024-02-04T09:30:53;10.20;99.90
16666;DHT22;8446;50.99880500;6.25021400;2024-02-04T09:33:24;10.20;99.90
16666;DHT22;8446;50.99880500;6.25021400;2024-02-04T09:35:56;10.30;99.90
16666;DHT22;8446;50.99880500;6.25021400;2024-02-04T09:38:28;10.30;99.90
16666;DHT22;8446;50.99880500;6.25021400;2024-02-04T09:41:00;10.30;99.90
16666;DHT22;8446;50.99880500;6.25021400;2024-02-04T09:43:35;10.30;99.90
16666;DHT22;8446;50.99880500;6.25021400;2024-02-04T09:46:08;10.40;99.90
16666;DHT22;8446;50.99880500;6.25021400;2024-02-04T09:48:40;10.40;99.90
16666;DHT22;8446;50.99880500;6.25021400;2024-02-04T09:51:12;10.30;99.90
16666;DHT22;8446;50.99880500;6.25021400;2024-02-04T09:53:49;10.40;99.90
16666;DHT22;8446;50.99880500;6.25021400;2024-02-04T09:56:25;10.50;99.90
16666;DHT22;8446;50.99880500;6.25021400;2024-02-04T09:58:57;10.50;99.90
16666;DHT22;8446;50.99880500;6.25021400;2024-02-04T10:01:31;10.40;99.90
16666;DHT22;8446;50.99880500;6.25021400;2024-02-04T10:04:03;10.50;99.90
16666;DHT22;8446;50.99880500;6.25021400;2024-02-04T10:06:35;10.60;99.90
16666;DHT22;8446;50.99880500;6.25021400;2024-02-04T10:09:07;10.60;99.90
16666;DHT22;8446;50.99880500;6.25021400;2024-02-04T10:11:39;10.60;99.90
16666;DHT22;8446;50.99880500;6.25021400;2024-02-04T10:14:10;10.60;99.90
16666;DHT22;8446;50.99880500;6.25021400;2024-02-04T10:16:44;10.70;99.90
16666;DHT22;8446;50.99880500;6.25021400;2024-02-04T10:19:16;10.70;99.90
16666;DHT22;8446;50.99880500;6.25021400;2024-02-04T10:21:57;10.80;99.90
16666;DHT22;8446;50.99880500;6.25021400;2024-02-04T10:24:30;10.90;99.90
16666;DHT22;8446;50.99880500;6.25021400;2024-02-04T10:27:02;10.80;99.90
16666;DHT22;8446;50.99880500;6.25021400;2024-02-04T10:29:34;10.80;99.90
16666;DHT22;8446;50.99880500;6.25021400;2024-02-04T10:32:07;10.80;99.90
16666;DHT22;8446;50.99880500;6.25021400;2024-02-04T10:34:39;10.80;99.90
16666;DHT22;8446;50.99880500;6.25021400;2024-02-04T10:37:11;10.80;99.90
16666;DHT22;8446;50.99880500;6.25021400;2024-02-04T10:39:43;10.70;99.90
16666;DHT22;8446;50.99880500;6.25021400;2024-02-04T10:42:15;10.60;99.90
16666;DHT22;8446;50.99880500;6.25021400;2024-02-04T10:44:49;10.60;99.90
16666;DHT22;8446;50.99880500;6.25021400;2024-02-04T10:47:27;10.60;99.90
16666;DHT22;8446;50.99880500;6.25021400;2024-02-04T10:50:04;10.60;99.90
16666;DHT22;8446;50.99880500;6.25021400;2024-02-04T10:52:37;10.50;99.90
16666;DHT22;8446;50.99880500;6.25021400;2024-02-04T10:55:11;10.50;99.90
16666;DHT22;8446;50.99880500;6.25021400;2024-02-04T10:57:44;10.40;99.90
16666;DHT22;8446;50.99880500;6.25021400;2024-02-04T11:00:18;10.40;99.90
16666;DHT22;8446;50.99880500;6.25021400;2024-02-04T11:02:53;10.40;99.90
16666;DHT22;8446;50.99880500;6.25021400;2024-02-04T11:05:26;10.40;99.90
16666;DHT22;8446;50.99880500;6.25021400;2024-02-04T11:07:59;10.40;99.90
16666;DHT22;8446;50.99880500;6.25021400;2024-02-04T11:10:32;10.50;99.90
16666;DHT22;8446;50.99880500;6.25021400;2024-02-04T11:13:04;10.50;99.90
16666;DHT22;8446;50.99880500;6.25021400;2024-02-04T11:15:37;10.50;99.90
16666;DHT22;8446;50.99880500;6.25021400;2024-02-04T11:18:29;10.50;99.90
16666;DHT22;8446;50.99880500;6.25021400;2024-02-04T11:21:19;10.50;99.90
16666;DHT22;8446;50.99880500;6.25021400;2024-02-04T11:24:06;10.50;99.90
16666;DHT22;8446;50.99880500;6.25021400;2024-02-04T11:26:41;10.60;99.90
16666;DHT22;8446;50.99880500;6.25021400;2024-02-04T11:29:13;10.60;99.90
16666;DHT22;8446;50.99880500;6.25021400;2024-02-04T11:31:45;10.60;99.90
16666;DHT22;8446;50.99880500;6.25021400;2024-02-04T11:34:18;10.60;99.90
16666;DHT22;8446;50.99880500;6.25021400;2024-02-04T11:36:50;10.60;99.90
16666;DHT22;8446;50.99880500;6.25021400;2024-02-04T11:39:22;10.60;99.90
16666;DHT22;8446;50.99880500;6.25021400;2024-02-04T11:41:55;10.60;99.90
16666;DHT22;8446;50.99880500;6.25021400;2024-02-04T11:44:27;10.60;99.90
16666;DHT22;8446;50.99880500;6.25021400;2024-02-04T11:47:00;10.50;99.90
16666;DHT22;8446;50.99880500;6.25021400;2024-02-04T11:49:33;10.50;99.90
16666;DHT22;8446;50.99880500;6.25021400;2024-02-04T11:52:05;10.50;99.90
16666;DHT22;8446;50.99880500;6.25021400;2024-02-04T11:54:37;10.50;99.90
16666;DHT22;8446;50.99880500;6.25021400;2024-02-04T11:57:08;10.50;99.90
16666;DHT22;8446;50.99880500;6.25021400;2024-02-04T11:59:42;10.40;99.90
16666;DHT22;8446;50.99880500;6.25021400;2024-02-04T12:02:16;10.40;99.90
16666;DHT22;8446;50.99880500;6.25021400;2024-02-04T12:04:49;10.40;99.90
16666;DHT22;8446;50.99880500;6.25021400;2024-02-04T12:07:22;10.40;99.90
16666;DHT22;8446;50.99880500;6.25021400;2024-02-04T12:09:55;10.40;99.90
16666;DHT22;8446;50.99880500;6.25021400;2024-02-04T12:12:27;10.40;99.90
16666;DHT22;8446;50.99880500;6.25021400;2024-02-04T12:15:00;10.40;99.90
16666;DHT22;8446;50.99880500;6.25021400;2024-02-04T12:17:33;10.30;99.90
16666;DHT22;8446;50.99880500;6.25021400;2024-02-04T12:20:06;10.30;99.90
16666;DHT22;8446;50.99880500;6.25021400;2024-02-04T12:22:38;10.40;99.90
16666;DHT22;8446;50.99880500;6.25021400;2024-02-04T12:25:10;10.30;99.90
16666;DHT22;8446;50.99880500;6.25021400;2024-02-04T12:27:43;10.30;99.90
16666;DHT22;8446;50.99880500;6.25021400;2024-02-04T12:30:14;10.40;99.90
16666;DHT22;8446;50.99880500;6.25021400;2024-02-04T12:32:55;10.40;99.90
16666;DHT22;8446;50.99880500;6.25021400;2024-02-04T12:35:29;10.40;99.90
16666;DHT22;8446;50.99880500;6.25021400;2024-02-04T12:38:01;10.40;99.90
16666;DHT22;8446;50.99880500;6.25021400;2024-02-04T12:40:33;10.40;99.90
16666;DHT22;8446;50.99880500;6.25021400;2024-02-04T12:43:05;10.40;99.90
16666;DHT22;8446;50.99880500;6.25021400;2024-02-04T12:45:37;10.40;99.90
16666;DHT22;8446;50.99880500;6.25021400;2024-02-04T12:48:09;10.40;99.90
16666;DHT22;8446;50.99880500;6.25021400;2024-02-04T12:50:42;10.40;99.90
16666;DHT22;8446;50.99880500;6.25021400;2024-02-04T12:53:14;10.40;99.90
16666;DHT22;8446;50.99880500;6.25021400;2024-02-04T12:55:57;10.40;99.90
16666;DHT22;8446;50.99880500;6.25021400;2024-02-04T12:58:29;10.40;99.90
16666;DHT22;8446;50.99880500;6.25021400;2024-02-04T13:01:01;10.40;99.90
16666;DHT22;8446;50.99880500;6.25021400;2024-02-04T13:03:35;10.40;99.90
16666;DHT22;8446;50.99880500;6.25021400;2024-02-04T13:06:08;10.40;99.90
16666;DHT22;8446;50.99880500;6.25021400;2024-02-04T13:08:40;10.30;99.90
16666;DHT22;8446;50.99880500;6.25021400;2024-02-04T13:11:19;10.30;99.90
16666;DHT22;8446;50.99880500;6.25021400;2024-02-04T13:13:51;10.30;99.90
16666;DHT22;8446;50.99880500;6.25021400;2024-02-04T13:16:23;10.30;99.90
16666;DHT22;8446;50.99880500;6.25021400;2024-02-04T13:18:55;10.30;99.90
16666;DHT22;8446;50.99880500;6.25021400;2024-02-04T13:21:29;10.40;99.90
16666;DHT22;8446;50.99880500;6.25021400;2024-02-04T13:24:03;10.40;99.90
16666;DHT22;8446;50.99880500;6.25021400;2024-02-04T13:26:38;10.40;99.90
16666;DHT22;8446;50.99880500;6.25021400;2024-02-04T13:29:10;10.40;99.90
16666;DHT22;8446;50.99880500;6.25021400;2024-02-04T13:31:42;10.50;99.90
16666;DHT22;8446;50.99880500;6.25021400;2024-02-04T13:34:13;10.50;99.90
16666;DHT22;8446;50.99880500;6.25021400;2024-02-04T13:36:46;10.50;99.90
16666;DHT22;8446;50.99880500;6.25021400;2024-02-04T13:39:18;10.50;99.90
16666;DHT22;8446;50.99880500;6.25021400;2024-02-04T13:41:50;10.50;99.90
16666;DHT22;8446;50.99880500;6.25021400;2024-02-04T13:44:22;10.50;99.90
16666;DHT22;8446;50.99880500;6.25021400;2024-02-04T13:46:53;10.50;99.90
16666;DHT22;8446;50.99880500;6.25021400;2024-02-04T13:49:25;10.50;99.90
16666;DHT22;8446;50.99880500;6.25021400;2024-02-04T13:51:58;10.50;99.90
16666;DHT22;8446;50.99880500;6.25021400;2024-02-04T13:54:30;10.50;99.90
16666;DHT22;8446;50.99880500;6.25021400;2024-02-04T13:57:02;10.50;99.90
16666;DHT22;8446;50.99880500;6.25021400;2024-02-04T13:59:34;10.50;99.90
16666;DHT22;8446;50.99880500;6.25021400;2024-02-04T14:02:06;10.50;99.90
16666;DHT22;8446;50.99880500;6.25021400;2024-02-04T14:04:39;10.50;99.90
16666;DHT22;8446;50.99880500;6.25021400;2024-02-04T14:07:12;10.60;99.90
16666;DHT22;8446;50.99880500;6.25021400;2024-02-04T14:09:44;10.60;99.90